Time;durP1;ratioP1;P1;durP2;ratioP2;P2;SDS_P1;SDS_P2;PMS_P1;PMS_P2;Temp;Humidity;BMP_temperature;BMP_pressure;BME280_temperature;BME280_humidity;BME280_pressure;Samples;Min_cycle;Max_cycle;Signal;HPM_P1;HPM_P2
2022/04/25 00:00:35;;;;;;;14.55;8.98;;;8.80;99.90;;;;;;5083672;28;20071;-74
2022/04/25 00:03:01;;;;;;;19.42;8.48;;;9.00;99.90;;;;;;5088901;28;20058;-74
2022/04/25 00:05:27;;;;;;;15.85;7.85;;;8.80;99.90;;;;;;5088824;28;20090;-74
2022/04/25 00:07:53;;;;;;;15.85;8.23;;;9.00;99.90;;;;;;5089196;28;20048;-74
2022/04/25 00:10:19;;;;;;;13.57;7.85;;;8.90;99.90;;;;;;5087757;28;21698;-74
2022/04/25 00:12:44;;;;;;;14.75;7.93;;;9.00;99.90;;;;;;5090170;28;20044;-74
2022/04/25 00:15:11;;;;;;;18.63;7.88;;;9.00;99.90;;;;;;5089227;28;20049;-74
2022/04/25 00:17:36;;;;;;;16.08;8.57;;;9.10;99.90;;;;;;5090101;28;20513;-74
2022/04/25 00:20:03;;;;;;;16.75;8.27;;;9.10;99.90;;;;;;5089301;28;20048;-73
2022/04/25 00:22:29;;;;;;;18.27;8.43;;;8.80;99.90;;;;;;5088968;28;20077;-74
2022/04/25 00:24:54;;;;;;;14.00;7.68;;;9.10;99.90;;;;;;5088505;28;20044;-74
2022/04/25 00:27:20;;;;;;;15.30;7.82;;;9.00;99.90;;;;;;5089978;28;20051;-74
2022/04/25 00:29:45;;;;;;;14.25;8.60;;;9.00;99.90;;;;;;5087807;28;20051;-73
2022/04/25 00:32:11;;;;;;;14.25;7.88;;;9.00;99.90;;;;;;5088398;28;20117;-74
2022/04/25 00:34:36;;;;;;;19.48;7.88;;;9.10;99.90;;;;;;5090208;28;20111;-74
2022/04/25 00:37:03;;;;;;;15.68;8.93;;;8.90;99.90;;;;;;5089889;28;20040;-74
2022/04/25 00:39:28;;;;;;;13.60;8.65;;;8.90;99.90;;;;;;5087878;28;20044;-74
2022/04/25 00:41:56;;;;;;;15.07;7.57;;;8.80;99.90;;;;;;5088588;28;20051;-74
2022/04/25 00:44:22;;;;;;;16.23;8.20;;;8.80;99.90;;;;;;5089678;28;20044;-74
2022/04/25 00:46:51;;;;;;;14.57;8.95;;;9.00;99.90;;;;;;5090096;28;20032;-74
2022/04/25 00:49:17;;;;;;;15.10;8.27;;;8.70;99.90;;;;;;5071556;28;20552;-73
2022/04/25 00:51:43;;;;;;;15.18;8.15;;;8.80;99.90;;;;;;5091865;28;20039;-74
2022/04/25 00:54:09;;;;;;;17.48;8.43;;;8.90;99.90;;;;;;5074898;28;20036;-74
2022/04/25 00:56:35;;;;;;;14.35;8.25;;;9.00;99.90;;;;;;5093394;28;20076;-74
2022/04/25 00:59:03;;;;;;;16.83;9.32;;;8.80;99.90;;;;;;5091500;28;20042;-73
2022/04/25 01:01:29;;;;;;;14.35;7.78;;;8.90;99.90;;;;;;5091420;28;20040;-73
2022/04/25 01:03:54;;;;;;;15.68;8.13;;;8.90;99.90;;;;;;5091599;28;20482;-74
2022/04/25 01:06:20;;;;;;;14.38;8.35;;;8.90;99.90;;;;;;5091431;28;20044;-74
2022/04/25 01:08:46;;;;;;;19.35;8.35;;;8.80;99.90;;;;;;5091719;28;20473;-73
2022/04/25 01:11:13;;;;;;;15.40;8.50;;;8.70;99.90;;;;;;5090675;28;20035;-73
2022/04/25 01:13:39;;;;;;;16.60;9.57;;;8.80;99.90;;;;;;5092844;28;20107;-74
2022/04/25 01:16:05;;;;;;;15.52;8.60;;;8.90;99.90;;;;;;5091461;28;20155;-73
2022/04/25 01:18:30;;;;;;;14.65;8.07;;;8.70;99.90;;;;;;5074560;28;20038;-73
2022/04/25 01:20:58;;;;;;;15.00;8.52;;;8.70;99.90;;;;;;5090027;28;20039;-73
2022/04/25 01:28:53;;;;;;;17.67;9.52;;;8.70;99.90;;;;;;5090870;28;20125;-73
2022/04/25 01:31:19;;;;;;;15.02;8.85;;;8.70;99.90;;;;;;5090468;28;20085;-73
2022/04/25 01:33:45;;;;;;;15.85;9.18;;;8.70;99.90;;;;;;5092366;28;20044;-74
2022/04/25 01:36:11;;;;;;;15.07;8.95;;;8.80;99.90;;;;;;5091084;28;20048;-74
2022/04/25 01:38:36;;;;;;;15.48;9.25;;;8.80;99.90;;;;;;5092516;28;20078;-74
2022/04/25 01:41:02;;;;;;;16.33;8.95;;;8.80;99.90;;;;;;5091632;28;20075;-73
2022/04/25 01:43:27;;;;;;;21.92;10.13;;;8.60;99.90;;;;;;5090941;28;20093;-74
2022/04/25 01:45:53;;;;;;;17.52;9.38;;;8.70;99.90;;;;;;5092052;28;20040;-74
2022/04/25 01:48:18;;;;;;;19.45;8.57;;;8.70;99.90;;;;;;5101295;28;20380;-73
2022/04/25 01:50:44;;;;;;;14.73;7.68;;;8.60;99.90;;;;;;5111747;28;20046;-74
2022/04/25 01:53:09;;;;;;;18.95;9.73;;;8.60;99.90;;;;;;5112561;28;20031;-74
2022/04/25 01:55:36;;;;;;;15.65;8.38;;;8.60;99.90;;;;;;5093951;28;20101;-74
2022/04/25 01:58:01;;;;;;;15.93;9.02;;;8.50;99.90;;;;;;5090669;28;20040;-74
2022/04/25 02:00:27;;;;;;;15.65;9.48;;;8.50;99.90;;;;;;5104536;28;20524;-74
2022/04/25 02:02:53;;;;;;;18.02;7.63;;;8.50;99.90;;;;;;5112159;28;20082;-74
2022/04/25 02:05:18;;;;;;;15.68;8.20;;;8.40;99.90;;;;;;5112229;28;20042;-74
2022/04/25 02:07:44;;;;;;;19.35;9.10;;;8.40;99.90;;;;;;5112371;28;20089;-73
2022/04/25 02:10:09;;;;;;;17.75;9.48;;;8.20;99.90;;;;;;5109780;28;20035;-73
2022/04/25 02:12:35;;;;;;;13.70;8.13;;;8.20;99.90;;;;;;5110850;28;20039;-74
2022/04/25 02:15:01;;;;;;;19.25;8.70;;;8.30;99.90;;;;;;5111815;28;20485;-73
2022/04/25 02:17:27;;;;;;;14.50;8.90;;;8.20;99.90;;;;;;5111894;28;20047;-73
2022/04/25 02:19:52;;;;;;;17.55;7.85;;;8.00;99.90;;;;;;5111581;28;20043;-73
2022/04/25 02:22:19;;;;;;;13.73;7.32;;;8.20;99.90;;;;;;5111955;28;20043;-73
2022/04/25 02:24:45;;;;;;;18.52;8.15;;;7.90;99.90;;;;;;5110551;28;20039;-74
2022/04/25 02:27:11;;;;;;;15.23;7.57;;;7.90;99.90;;;;;;5111809;28;20092;-74
2022/04/25 02:29:43;;;;;;;14.32;7.97;;;7.90;99.90;;;;;;5111067;28;20039;-73
2022/04/25 02:32:12;;;;;;;14.43;8.27;;;8.00;99.90;;;;;;5111962;28;20035;-73
2022/04/25 02:34:39;;;;;;;15.40;8.52;;;7.80;99.90;;;;;;5110722;28;20384;-73
2022/04/25 02:37:05;;;;;;;15.68;8.48;;;7.90;99.90;;;;;;5110243;28;20468;-73
2022/04/25 02:39:30;;;;;;;17.17;7.82;;;7.80;99.90;;;;;;5109427;28;20497;-72
2022/04/25 02:41:56;;;;;;;13.27;7.40;;;7.90;99.90;;;;;;5110126;28;20080;-73
2022/04/25 02:44:22;;;;;;;13.63;7.65;;;7.80;99.90;;;;;;5109793;28;20059;-73
2022/04/25 02:46:48;;;;;;;15.02;7.85;;;7.80;99.90;;;;;;5109917;28;20122;-73
2022/04/25 02:49:13;;;;;;;14.65;7.25;;;7.80;99.90;;;;;;5093948;28;20036;-72
2022/04/25 02:51:39;;;;;;;15.23;8.45;;;7.80;99.90;;;;;;5089718;28;20036;-72
2022/04/25 02:54:04;;;;;;;9.80;7.20;;;7.70;99.90;;;;;;5089612;28;20063;-73
2022/04/25 02:56:31;;;;;;;15.02;7.13;;;7.70;99.90;;;;;;5089687;28;20062;-73
2022/04/25 02:58:56;;;;;;;13.23;8.20;;;8.30;99.90;;;;;;5090048;28;20608;-72
2022/04/25 03:01:22;;;;;;;15.45;7.30;;;7.80;99.90;;;;;;5086427;28;20107;-73
2022/04/25 03:03:47;;;;;;;14.43;7.93;;;7.60;99.90;;;;;;5106791;28;20039;-73
2022/04/25 03:06:13;;;;;;;16.75;7.75;;;7.70;99.90;;;;;;5090622;28;20048;-73
2022/04/25 03:08:39;;;;;;;15.02;8.05;;;7.70;99.90;;;;;;5089278;28;20119;-73
2022/04/25 03:11:09;;;;;;;14.52;8.35;;;7.70;99.90;;;;;;5088523;28;20032;-72
2022/04/25 03:13:35;;;;;;;17.25;8.20;;;7.70;99.90;;;;;;5089308;28;20040;-73
2022/04/25 03:16:03;;;;;;;15.50;8.40;;;7.70;99.90;;;;;;5089282;28;20039;-73
2022/04/25 03:18:29;;;;;;;10.10;7.78;;;7.70;99.90;;;;;;5090708;28;20409;-73
2022/04/25 03:20:55;;;;;;;19.70;8.30;;;7.40;99.90;;;;;;5089537;28;20044;-74
2022/04/25 03:23:22;;;;;;;12.60;7.93;;;7.50;99.90;;;;;;5089478;28;20036;-74
2022/04/25 03:25:49;;;;;;;20.38;9.32;;;7.60;99.90;;;;;;5089387;28;20505;-74
2022/04/25 03:28:16;;;;;;;11.40;8.13;;;7.70;99.90;;;;;;5090153;28;20044;-74
2022/04/25 03:30:41;;;;;;;17.25;9.40;;;7.50;99.90;;;;;;5089646;28;20050;-73
2022/04/25 03:33:08;;;;;;;18.23;8.95;;;7.50;99.90;;;;;;5089253;28;20413;-73
2022/04/25 03:35:34;;;;;;;15.48;7.68;;;7.50;99.90;;;;;;5089037;28;20052;-73
2022/04/25 03:38:00;;;;;;;14.25;8.50;;;7.30;99.90;;;;;;5089086;28;20559;-74
2022/04/25 03:40:26;;;;;;;14.00;7.40;;;7.60;99.90;;;;;;5088288;28;20493;-73
2022/04/25 03:42:55;;;;;;;18.20;8.88;;;7.70;99.90;;;;;;5090079;28;20055;-73
2022/04/25 03:45:21;;;;;;;13.10;8.30;;;;;;;;;;5090201;28;20545;-74
2022/04/25 03:47:47;;;;;;;14.07;7.32;;;7.60;99.90;;;;;;5089182;28;20115;-74
2022/04/25 03:50:14;;;;;;;17.63;8.50;;;;;;;;;;5071564;28;20180;-73
2022/04/25 03:52:42;;;;;;;17.85;7.55;;;7.80;99.90;;;;;;5088638;28;20513;-73
2022/04/25 03:58:04;;;;;;;15.18;7.88;;;7.80;99.90;;;;;;5091077;28;20069;-74
2022/04/25 04:00:30;;;;;;;13.75;7.68;;;8.10;99.90;;;;;;5089003;28;20097;-73
2022/04/25 04:02:58;;;;;;;20.15;7.72;;;8.00;99.90;;;;;;5090968;28;20460;-74
2022/04/25 04:05:24;;;;;;;13.05;7.22;;;8.10;99.90;;;;;;5089575;28;20044;-74
2022/04/25 04:07:49;;;;;;;15.43;7.80;;;8.00;99.90;;;;;;5090631;28;20086;-74
2022/04/25 04:10:16;;;;;;;10.60;7.00;;;;;;;;;;5071669;28;20033;-73
2022/04/25 04:12:42;;;;;;;12.95;7.22;;;8.10;99.90;;;;;;5089321;28;20086;-74
2022/04/25 04:15:08;;;;;;;15.40;8.50;;;8.20;99.90;;;;;;5072564;28;20078;-73
2022/04/25 04:17:36;;;;;;;15.50;7.72;;;8.30;99.90;;;;;;5091023;28;20055;-73
2022/04/25 04:20:04;;;;;;;13.43;7.68;;;;;;;;;;5089905;28;20040;-73
2022/04/25 04:22:31;;;;;;;15.77;7.80;;;8.20;99.90;;;;;;5089281;28;20052;-73
2022/04/25 04:25:01;;;;;;;17.58;9.95;;;8.20;99.90;;;;;;5091352;28;20132;-74
2022/04/25 04:27:31;;;;;;;13.48;8.35;;;8.20;99.90;;;;;;5093251;28;20043;-73
2022/04/25 04:29:58;;;;;;;16.10;8.70;;;8.20;99.90;;;;;;5092784;28;20036;-73
2022/04/25 04:32:26;;;;;;;13.50;7.60;;;8.30;99.90;;;;;;5092905;28;20132;-74
2022/04/25 04:34:51;;;;;;;12.63;7.78;;;8.40;99.90;;;;;;5094062;28;20048;-74
2022/04/25 04:37:17;;;;;;;16.27;9.52;;;8.10;99.90;;;;;;5093320;28;20399;-74
2022/04/25 04:39:43;;;;;;;16.92;8.38;;;;;;;;;;5092288;28;20063;-74
2022/04/25 04:42:08;;;;;;;15.88;8.82;;;8.40;99.90;;;;;;5092840;28;20055;-74
2022/04/25 04:44:36;;;;;;;17.38;8.55;;;8.30;99.90;;;;;;5093857;28;20036;-74
2022/04/25 04:47:01;;;;;;;14.43;7.95;;;8.30;99.90;;;;;;5092560;28;20494;-73
2022/04/25 04:49:27;;;;;;;12.70;7.65;;;8.40;99.90;;;;;;5112358;28;20039;-73
2022/04/25 04:51:52;;;;;;;14.40;8.35;;;8.20;99.90;;;;;;5114600;28;20039;-73
2022/04/25 04:54:18;;;;;;;9.18;6.60;;;8.40;99.90;;;;;;5105118;28;20119;-73
2022/04/25 04:56:45;;;;;;;11.52;6.82;;;8.20;99.90;;;;;;5094133;28;20036;-73
2022/04/25 04:59:10;;;;;;;11.20;7.72;;;8.40;99.90;;;;;;5092217;28;20512;-73
2022/04/25 05:01:36;;;;;;;11.38;8.05;;;;;;;;;;5092864;28;20035;-73
2022/04/25 05:04:02;;;;;;;13.82;7.97;;;8.50;99.90;;;;;;5092206;28;20067;-74
2022/04/25 05:06:28;;;;;;;12.75;7.78;;;8.30;99.90;;;;;;5092328;28;20040;-74
2022/04/25 05:08:54;;;;;;;16.33;7.70;;;8.40;99.90;;;;;;5093316;28;20035;-73
2022/04/25 05:11:20;;;;;;;17.02;8.77;;;8.30;99.90;;;;;;5093423;28;20039;-73
2022/04/25 05:13:46;;;;;;;17.35;8.77;;;;;;;;;;5094521;28;20399;-73
2022/04/25 05:16:12;;;;;;;14.65;9.00;;;8.40;99.90;;;;;;5093532;28;20040;-74
2022/04/25 05:18:37;;;;;;;13.57;8.55;;;8.30;99.90;;;;;;5092082;28;20070;-74
2022/04/25 05:21:04;;;;;;;14.13;8.50;;;8.70;99.90;;;;;;5115685;22;20068;-68
2022/04/25 05:23:31;;;;;;;12.40;8.25;;;8.50;99.90;;;;;;5091858;28;20081;-69
2022/04/25 05:25:58;;;;;;;13.50;8.23;;;;;;;;;;5093314;28;20406;-68
2022/04/25 05:28:25;;;;;;;13.40;8.75;;;8.60;99.90;;;;;;5092005;28;20502;-69
2022/04/25 05:30:51;;;;;;;15.77;9.18;;;8.40;99.90;;;;;;5091125;28;20044;-70
2022/04/25 05:33:19;;;;;;;12.75;8.63;;;8.60;99.90;;;;;;5092981;28;20075;-69
2022/04/25 05:35:46;;;;;;;11.40;7.65;;;8.50;99.90;;;;;;5090500;28;20047;-68
2022/04/25 05:38:12;;;;;;;11.57;8.40;;;8.50;99.90;;;;;;5092927;28;20485;-69
2022/04/25 05:40:39;;;;;;;12.27;8.15;;;8.20;99.90;;;;;;5090709;28;20035;-69
2022/04/25 05:43:06;;;;;;;14.82;9.20;;;8.40;99.90;;;;;;5074926;28;20044;-69
2022/04/25 05:45:31;;;;;;;17.30;9.07;;;8.50;99.90;;;;;;5091386;28;20201;-69
2022/04/25 05:47:58;;;;;;;17.23;8.48;;;8.50;99.90;;;;;;5098520;28;20576;-69
2022/04/25 05:53:11;;;;;;;18.65;9.55;;;;;;;;;;5111762;28;20123;-68
2022/04/25 05:55:37;;;;;;;20.83;9.82;;;8.70;99.90;;;;;;5093643;27;20494;-69
2022/04/25 05:58:04;;;;;;;25.92;10.52;;;8.50;99.90;;;;;;5092249;28;20055;-69
2022/04/25 06:00:30;;;;;;;20.77;9.35;;;8.50;99.90;;;;;;5068878;28;20409;-68
2022/04/25 06:02:56;;;;;;;17.30;8.57;;;8.50;99.90;;;;;;5108248;28;20089;-70
2022/04/25 06:05:22;;;;;;;16.67;9.80;;;8.50;99.90;;;;;;5099425;28;20047;-69
2022/04/25 06:07:49;;;;;;;21.63;10.48;;;8.60;99.90;;;;;;5086687;28;20115;-69
2022/04/25 06:10:20;;;;;;;24.58;10.38;;;8.60;99.90;;;;;;5087470;28;20069;-69
2022/04/25 06:12:48;;;;;;;15.48;9.90;;;8.90;99.90;;;;;;5081038;28;20036;-69
2022/04/25 06:15:16;;;;;;;18.80;9.95;;;8.70;99.90;;;;;;5051456;28;20039;-69
2022/04/25 06:17:41;;;;;;;15.43;9.25;;;8.70;99.90;;;;;;5068853;28;20051;-69
2022/04/25 06:20:09;;;;;;;13.82;9.15;;;8.50;99.90;;;;;;5069272;28;20630;-70
2022/04/25 06:22:35;;;;;;;16.73;9.77;;;7.90;99.90;;;;;;5068831;28;20040;-69
2022/04/25 06:25:01;;;;;;;15.43;9.30;;;8.70;99.90;;;;;;5052242;28;20044;-69
2022/04/25 06:27:27;;;;;;;19.17;9.73;;;8.50;99.90;;;;;;5056215;28;20043;-69
2022/04/25 06:29:53;;;;;;;16.95;10.20;;;8.70;99.90;;;;;;5068472;28;20036;-69
2022/04/25 06:32:19;;;;;;;15.63;9.77;;;8.60;99.90;;;;;;5050233;28;20043;-69
2022/04/25 06:34:46;;;;;;;13.90;9.48;;;8.60;99.90;;;;;;5070564;28;20078;-70
2022/04/25 06:37:11;;;;;;;13.55;8.20;;;8.50;99.90;;;;;;5069520;28;20619;-69
2022/04/25 06:39:37;;;;;;;15.57;9.20;;;8.60;99.90;;;;;;5070230;28;20036;-69
2022/04/25 06:42:04;;;;;;;15.02;9.27;;;8.50;99.90;;;;;;5050947;28;20481;-67
2022/04/25 06:44:31;;;;;;;16.80;9.75;;;8.80;99.90;;;;;;5083976;28;20089;-70
2022/04/25 06:46:57;;;;;;;13.05;9.02;;;8.80;99.90;;;;;;5086141;28;20131;-69
2022/04/25 06:49:25;;;;;;;14.15;8.63;;;8.90;99.90;;;;;;5085901;28;20114;-69
2022/04/25 06:51:52;;;;;;;14.50;8.35;;;;;;;;;;5086738;28;20047;-69
2022/04/25 06:54:19;;;;;;;13.73;8.80;;;8.80;99.90;;;;;;5087638;28;20116;-69
2022/04/25 06:56:45;;;;;;;14.20;8.95;;;9.00;99.90;;;;;;5086219;28;20040;-69
2022/04/25 06:59:11;;;;;;;15.70;8.95;;;;;;;;;;5068385;28;20414;-70
2022/04/25 07:01:39;;;;;;;16.02;10.27;;;8.90;99.90;;;;;;5088111;28;20043;-69
2022/04/25 07:04:06;;;;;;;17.52;10.10;;;8.90;99.90;;;;;;5082219;28;20047;-70
2022/04/25 07:06:32;;;;;;;18.08;10.30;;;8.90;99.90;;;;;;5069260;28;20512;-69
2022/04/25 07:08:57;;;;;;;16.13;8.73;;;8.80;99.90;;;;;;5086435;28;20040;-68
2022/04/25 07:11:23;;;;;;;13.05;7.95;;;9.10;99.90;;;;;;5087226;28;20032;-68
2022/04/25 07:13:48;;;;;;;18.15;9.23;;;9.00;99.90;;;;;;5090287;28;20447;-70
2022/04/25 07:16:14;;;;;;;16.92;9.13;;;9.20;99.90;;;;;;5085260;28;20050;-69
2022/04/25 07:18:40;;;;;;;16.13;9.15;;;9.00;99.90;;;;;;5094685;28;20039;-69
2022/04/25 07:29:18;;;;;;;15.48;9.25;;;9.00;99.90;;;;;;5085518;28;20043;-68
2022/04/25 07:31:44;;;;;;;11.93;7.55;;;9.00;99.90;;;;;;5077150;28;20035;-69
2022/04/25 07:34:10;;;;;;;11.98;7.88;;;9.10;99.90;;;;;;5088414;28;20051;-69
2022/04/25 07:36:38;;;;;;;15.13;8.38;;;8.30;99.90;;;;;;5083637;28;20501;-69
2022/04/25 07:39:04;;;;;;;12.00;8.07;;;9.10;99.90;;;;;;5076391;28;20178;-69
2022/04/25 07:41:30;;;;;;;12.80;8.50;;;8.90;99.90;;;;;;5100405;28;20077;-69
2022/04/25 07:43:56;;;;;;;15.60;9.73;;;9.00;99.90;;;;;;5092533;28;20043;-69
2022/04/25 07:46:25;;;;;;;17.40;8.15;;;9.00;99.90;;;;;;5097753;28;20040;-69
2022/04/25 07:48:51;;;;;;;18.75;10.48;;;8.90;99.90;;;;;;5093130;28;20042;-67
2022/04/25 07:51:17;;;;;;;19.73;9.32;;;8.90;99.90;;;;;;5092256;28;20028;-69
2022/04/25 07:53:43;;;;;;;15.90;9.07;;;9.40;99.90;;;;;;5092718;28;20036;-69
2022/04/25 07:56:09;;;;;;;15.63;9.40;;;9.10;99.90;;;;;;5092314;28;20084;-69
2022/04/25 07:58:34;;;;;;;18.80;9.35;;;9.10;99.90;;;;;;5095568;28;20038;-68
2022/04/25 08:01:01;;;;;;;18.55;9.57;;;9.10;99.90;;;;;;5101665;28;20039;-69
2022/04/25 08:03:27;;;;;;;15.85;9.23;;;9.30;99.90;;;;;;5104730;28;20040;-69
2022/04/25 08:05:53;;;;;;;15.77;8.65;;;9.20;99.90;;;;;;5089905;28;20516;-69
2022/04/25 08:08:18;;;;;;;12.73;7.72;;;9.40;99.90;;;;;;5095362;28;20413;-69
2022/04/25 08:10:44;;;;;;;15.00;9.15;;;9.30;99.90;;;;;;5095521;28;20077;-68
2022/04/25 08:18:38;;;;;;;16.60;8.70;;;9.30;99.90;;;;;;5107821;28;20146;-69
2022/04/25 08:21:04;;;;;;;18.52;8.32;;;9.50;99.90;;;;;;5096772;28;20118;-69
2022/04/25 08:23:29;;;;;;;14.05;8.25;;;9.60;99.90;;;;;;5102595;28;20040;-69
2022/04/25 08:25:55;;;;;;;14.18;8.07;;;9.40;99.90;;;;;;5095897;28;20093;-69
2022/04/25 08:28:21;;;;;;;12.50;8.10;;;9.30;99.90;;;;;;5098098;28;20039;-69
2022/04/25 08:30:46;;;;;;;16.60;7.93;;;9.60;99.90;;;;;;5084398;28;20589;-70
2022/04/25 08:33:13;;;;;;;10.43;7.60;;;9.50;99.90;;;;;;5092732;28;20194;-69
2022/04/25 08:35:39;;;;;;;14.40;7.88;;;;;;;;;;5082577;28;20072;-70
2022/04/25 08:38:05;;;;;;;13.70;7.13;;;9.30;99.90;;;;;;5078347;28;20468;-69
2022/04/25 08:40:32;;;;;;;11.13;7.25;;;10.00;99.90;;;;;;5103919;28;20043;-69
2022/04/25 08:42:58;;;;;;;12.38;6.82;;;9.80;99.90;;;;;;5088756;28;20044;-70
2022/04/25 08:45:24;;;;;;;14.93;8.00;;;;;;;;;;5084742;28;20035;-69
2022/04/25 08:47:54;;;;;;;13.75;7.93;;;9.80;99.90;;;;;;5102090;28;20038;-70
2022/04/25 08:50:21;;;;;;;13.43;6.82;;;9.80;99.90;;;;;;5097763;28;20123;-69
2022/04/25 08:52:47;;;;;;;10.52;6.40;;;9.80;99.90;;;;;;5100354;28;20416;-69
2022/04/25 08:55:14;;;;;;;16.08;7.00;;;9.70;99.90;;;;;;5097629;28;20116;-69
2022/04/25 08:57:42;;;;;;;8.93;6.20;;;9.80;99.90;;;;;;5082052;28;20058;-69
2022/04/25 09:00:08;;;;;;;14.57;6.30;;;9.90;99.90;;;;;;5072031;28;20044;-69
2022/04/25 09:02:39;;;;;;;9.10;5.22;;;10.00;99.90;;;;;;5109296;28;20043;-69
2022/04/25 09:05:06;;;;;;;10.68;6.00;;;9.90;99.90;;;;;;5091394;28;20036;-69
2022/04/25 09:07:31;;;;;;;13.98;6.85;;;10.20;99.90;;;;;;5083569;28;20547;-69
2022/04/25 09:09:57;;;;;;;13.10;5.40;;;10.40;99.90;;;;;;5096354;28;20036;-69
2022/04/25 09:12:23;;;;;;;8.98;5.78;;;10.10;99.90;;;;;;5099257;28;20039;-69
2022/04/25 09:14:50;;;;;;;14.32;5.25;;;10.10;99.90;;;;;;5092224;28;20520;-69
2022/04/25 09:17:16;;;;;;;12.32;5.80;;;;;;;;;;5095519;28;20047;-69
2022/04/25 09:19:42;;;;;;;9.40;6.10;;;10.10;99.90;;;;;;5099495;28;20520;-69
2022/04/25 09:22:09;;;;;;;10.05;5.47;;;10.10;99.90;;;;;;5106104;28;20028;-70
2022/04/25 09:24:43;;;;;;;9.57;5.65;;;10.10;99.90;;;;;;5100267;28;20036;-69
2022/04/25 09:27:18;;;;;;;10.15;5.22;;;10.20;99.90;;;;;;5109112;28;20059;-69
2022/04/25 09:29:46;;;;;;;11.75;5.55;;;9.90;99.90;;;;;;5096049;28;20091;-69
2022/04/25 09:32:13;;;;;;;8.38;5.45;;;10.20;99.90;;;;;;5102859;28;20035;-69
2022/04/25 09:38:03;;;;;;;9.95;4.90;;;10.30;99.90;;;;;;5100812;28;20035;-69
2022/04/25 09:40:31;;;;;;;12.10;5.07;;;10.40;99.90;;;;;;5019946;28;20033;-70
2022/04/25 09:43:11;;;;;;;9.45;5.38;;;10.60;99.90;;;;;;5090707;28;20310;-70
2022/04/25 09:45:42;;;;;;;9.30;5.30;;;10.50;99.90;;;;;;5076432;28;20063;-69
2022/04/25 09:48:13;;;;;;;8.82;5.18;;;10.30;99.90;;;;;;5086255;28;20035;-70
2022/04/25 09:50:39;;;;;;;10.50;5.15;;;10.30;99.90;;;;;;5074079;28;20085;-69
2022/04/25 09:53:06;;;;;;;7.65;4.60;;;10.50;99.90;;;;;;5107207;28;20031;-70
2022/04/25 09:55:34;;;;;;;8.52;4.75;;;10.40;99.90;;;;;;5085561;28;20079;-69
2022/04/25 09:58:17;;;;;;;9.43;5.35;;;10.40;99.90;;;;;;5073546;28;20051;-68
2022/04/25 10:00:43;;;;;;;11.18;5.90;;;10.40;99.90;;;;;;5081891;28;20481;-69
2022/04/25 10:03:10;;;;;;;10.13;4.75;;;10.90;99.90;;;;;;5077438;28;20105;-69
2022/04/25 10:05:39;;;;;;;7.22;4.43;;;10.00;99.90;;;;;;5098093;28;20036;-69
2022/04/25 10:08:07;;;;;;;8.75;5.10;;;10.40;99.90;;;;;;5099787;28;20127;-69
2022/04/25 10:10:34;;;;;;;7.15;4.82;;;;;;;;;;5119153;27;20342;-69
2022/04/25 10:13:01;;;;;;;8.45;4.82;;;10.30;99.90;;;;;;5094927;28;20055;-69
2022/04/25 10:15:27;;;;;;;10.48;4.93;;;;;;;;;;5098386;28;20040;-70
2022/04/25 10:17:55;;;;;;;9.75;5.13;;;10.70;99.90;;;;;;5096068;28;20036;-70
2022/04/25 10:20:21;;;;;;;8.32;5.07;;;10.40;99.90;;;;;;5093458;28;20039;-70
2022/04/25 10:22:47;;;;;;;8.70;5.18;;;10.80;99.90;;;;;;5095253;28;20028;-70
2022/04/25 10:25:13;;;;;;;10.93;5.05;;;10.80;99.90;;;;;;5078672;28;20493;-68
2022/04/25 10:27:42;;;;;;;10.75;5.05;;;11.10;99.90;;;;;;5090597;28;20036;-69
2022/04/25 10:30:12;;;;;;;11.77;5.45;;;11.10;99.90;;;;;;5094534;28;20088;-67
2022/04/25 10:32:38;;;;;;;8.35;4.80;;;11.50;99.90;;;;;;5083304;28;20085;-69
2022/04/25 10:35:05;;;;;;;8.75;4.50;;;11.40;99.90;;;;;;5075171;28;20152;-69
2022/04/25 10:37:33;;;;;;;6.60;3.95;;;11.40;99.90;;;;;;5086534;28;20027;-70
2022/04/25 10:40:01;;;;;;;9.10;4.63;;;;;;;;;;5077156;28;20547;-69
2022/04/25 10:45:11;;;;;;;7.60;4.80;;;11.90;99.90;;;;;;5089285;28;20075;-71
2022/04/25 10:47:55;;;;;;;11.07;5.13;;;11.80;99.90;;;;;;5094518;28;20405;-69
2022/04/25 10:50:21;;;;;;;7.25;4.68;;;;;;;;;;5086488;28;20115;-67
2022/04/25 10:55:20;;;;;;;8.63;4.35;;;;;;;;;;5095958;28;20044;-67
2022/04/25 10:58:05;;;;;;;7.68;4.38;;;;;;;;;;5093524;28;20047;-68
2022/04/25 11:00:40;;;;;;;8.85;4.82;;;;;;;;;;5089127;28;20040;-68
2022/04/25 11:03:06;;;;;;;8.75;4.20;;;;;;;;;;5085139;28;20378;-68
2022/04/25 11:05:33;;;;;;;8.73;4.50;;;;;;;;;;5089917;28;20162;-68
2022/04/25 11:08:18;;;;;;;8.73;4.72;;;;;;;;;;5086716;28;20117;-69
2022/04/25 11:10:49;;;;;;;7.45;4.28;;;;;;;;;;5084771;28;20135;-68
2022/04/25 11:13:19;;;;;;;7.10;4.13;;;;;;;;;;5085232;28;20032;-68
2022/04/25 11:15:52;;;;;;;6.07;4.30;;;;;;;;;;5086590;28;20081;-69
2022/04/25 11:18:37;;;;;;;10.18;4.40;;;;;;;;;;5092921;28;20385;-69
2022/04/25 11:21:07;;;;;;;11.23;4.88;;;;;;;;;;5096759;22;20051;31
2022/04/25 11:23:34;;;;;;;8.50;4.50;;;;;;;;;;5073124;28;20475;-74
2022/04/25 11:26:00;;;;;;;8.90;4.35;;;;;;;;;;5079324;28;20335;-74
2022/04/25 11:28:26;;;;;;;7.53;4.05;;;;;;;;;;5055042;28;20048;-74
2022/04/25 11:31:11;;;;;;;6.65;4.13;;;;;;;;;;5058803;28;20596;-74
2022/04/25 11:33:42;;;;;;;7.05;4.10;;;;;;;;;;5053708;28;20402;-74
2022/04/25 11:36:08;;;;;;;7.18;4.03;;;;;;;;;;5064497;28;20040;-73
2022/04/25 11:41:28;;;;;;;9.82;4.05;;;;;;;;;;5035865;28;20247;-74
2022/04/25 11:43:54;;;;;;;7.68;3.70;;;;;;;;;;5065140;28;20051;-74
2022/04/25 11:46:20;;;;;;;7.38;4.65;;;;;;;;;;5052915;28;20414;-74
2022/04/25 11:48:49;;;;;;;16.20;4.78;;;13.00;99.90;;;;;;5054738;28;20037;-74
2022/04/25 11:51:26;;;;;;;8.95;4.78;;;13.10;99.90;;;;;;5015992;28;20487;-74
2022/04/25 11:53:53;;;;;;;10.45;3.80;;;13.20;99.90;;;;;;5055770;28;20040;-74
2022/04/25 11:56:21;;;;;;;11.05;4.65;;;13.00;99.90;;;;;;5052217;28;20444;-73
2022/04/25 11:58:48;;;;;;;5.50;3.88;;;12.90;99.90;;;;;;5041930;28;20129;-74
2022/04/25 12:01:14;;;;;;;9.75;4.18;;;13.00;99.90;;;;;;5042691;28;20041;-75
2022/04/25 12:03:42;;;;;;;13.73;4.38;;;;;;;;;;5050176;28;20086;-74
2022/04/25 12:06:12;;;;;;;9.55;4.40;;;13.50;99.90;;;;;;5039059;28;20528;-74
2022/04/25 12:17:00;;;;;;;10.63;4.43;;;13.40;99.90;;;;;;5052533;28;20107;-74
2022/04/25 12:19:26;;;;;;;10.52;4.68;;;;;;;;;;5062142;28;20679;-74
2022/04/25 12:22:05;;;;;;;12.55;4.03;;;13.20;99.90;;;;;;5042746;28;20055;-74
2022/04/25 12:24:31;;;;;;;8.13;4.50;;;12.70;99.90;;;;;;5037921;28;20419;-74
2022/04/25 12:26:57;;;;;;;10.60;4.35;;;;;;;;;;5059723;28;20079;-74
2022/04/25 12:29:23;;;;;;;11.02;4.50;;;12.60;99.90;;;;;;5054444;28;20048;-74
2022/04/25 12:31:48;;;;;;;6.40;4.22;;;12.80;99.90;;;;;;5039775;28;20090;-74
2022/04/25 12:34:19;;;;;;;10.23;4.85;;;12.50;99.90;;;;;;5064499;28;20498;-74
2022/04/25 12:36:55;;;;;;;9.38;4.55;;;12.60;99.90;;;;;;5066547;28;20047;-74
2022/04/25 12:39:21;;;;;;;12.80;4.70;;;12.60;99.90;;;;;;5074434;28;20045;-73
2022/04/25 12:41:56;;;;;;;6.93;4.10;;;12.60;99.90;;;;;;5035661;28;20110;-74
2022/04/25 12:44:23;;;;;;;10.52;3.90;;;12.70;99.90;;;;;;5057525;28;20059;-74
2022/04/25 12:47:15;;;;;;;8.73;4.05;;;12.50;99.90;;;;;;5045563;28;20036;-73
2022/04/25 12:49:44;;;;;;;8.63;3.70;;;12.60;99.90;;;;;;5041248;28;20045;-74
2022/04/25 12:52:11;;;;;;;8.88;4.50;;;12.70;99.90;;;;;;5060727;28;20533;-75
2022/04/25 12:54:48;;;;;;;10.02;4.03;;;12.60;99.90;;;;;;5054507;28;20041;-74
2022/04/25 12:57:17;;;;;;;6.85;4.35;;;12.60;99.90;;;;;;5046632;28;20045;-75
2022/04/25 12:59:53;;;;;;;8.30;5.18;;;12.80;99.90;;;;;;5045253;28;20079;-74
2022/04/25 13:02:32;;;;;;;11.77;4.55;;;12.80;99.90;;;;;;5044065;28;20138;-74
2022/04/25 13:05:00;;;;;;;8.82;4.35;;;12.80;99.90;;;;;;5040090;28;20036;-74
2022/04/25 13:07:35;;;;;;;9.65;4.63;;;12.70;99.90;;;;;;5052060;28;20410;-75
2022/04/25 13:10:03;;;;;;;9.10;4.25;;;12.80;99.90;;;;;;5058891;28;20037;-74
2022/04/25 13:12:37;;;;;;;11.93;4.60;;;12.80;99.90;;;;;;5054326;28;20533;-75
2022/04/25 13:15:08;;;;;;;8.38;4.30;;;12.70;99.90;;;;;;5060060;28;20041;-74
2022/04/25 13:17:36;;;;;;;8.77;4.28;;;12.70;99.90;;;;;;5060876;28;20514;-75
2022/04/25 13:20:03;;;;;;;8.55;4.38;;;12.80;99.90;;;;;;5044598;28;20521;-74
2022/04/25 13:22:29;;;;;;;17.50;6.63;;;;;;;;;;5052883;28;20051;-74
2022/04/25 13:24:54;;;;;;;8.38;5.00;;;12.70;99.90;;;;;;5051605;28;20041;-75
2022/04/25 13:27:21;;;;;;;10.57;4.75;;;;;;;;;;5036672;28;20041;-74
2022/04/25 13:29:47;;;;;;;8.50;4.75;;;12.70;99.90;;;;;;5057196;28;20556;-74
2022/04/25 13:32:13;;;;;;;9.88;5.20;;;;;;;;;;5032169;28;20032;-74
2022/04/25 13:34:40;;;;;;;10.07;4.95;;;;;;;;;;5059323;28;20048;-74
2022/04/25 13:37:06;;;;;;;9.15;4.63;;;;;;;;;;5066108;28;20044;-75
2022/04/25 13:39:33;;;;;;;13.10;4.93;;;12.70;99.90;;;;;;5067877;28;20043;-74
2022/04/25 13:42:01;;;;;;;8.90;4.90;;;;;;;;;;5063692;28;20507;-75
2022/04/25 13:44:27;;;;;;;8.88;4.38;;;12.30;99.90;;;;;;5053101;28;20029;-74